sensor_id;sensor_type;location;lat;lon;timestamp;pressure;altitude;pressure_sealevel;temperature
58307;BMP280;44116;50.884;4.768;2023-03-02T00:01:46;101840.0;;;-2.0
58307;BMP280;44116;50.884;4.768;2023-03-02T00:03:44;101830.0;;;-2.0
58307;BMP280;44116;50.884;4.768;2023-03-02T00:05:43;101840.0;;;-2.1
58307;BMP280;44116;50.884;4.768;2023-03-02T00:07:43;101840.0;;;-2.3
58307;BMP280;44116;50.884;4.768;2023-03-02T00:09:42;101840.0;;;-2.2
58307;BMP280;44116;50.884;4.768;2023-03-02T00:11:42;101840.0;;;-2.2
58307;BMP280;44116;50.884;4.768;2023-03-02T00:13:41;101840.0;;;-2.2
58307;BMP280;44116;50.884;4.768;2023-03-02T00:15:40;101840.0;;;-2.2
58307;BMP280;44116;50.884;4.768;2023-03-02T00:17:40;101840.0;;;-2.3
58307;BMP280;44116;50.884;4.768;2023-03-02T00:19:39;101840.0;;;-2.2
58307;BMP280;44116;50.884;4.768;2023-03-02T00:21:39;101840.0;;;-2.2
58307;BMP280;44116;50.884;4.768;2023-03-02T00:23:38;101840.0;;;-2.3
58307;BMP280;44116;50.884;4.768;2023-03-02T00:25:38;101840.0;;;-2.3
58307;BMP280;44116;50.884;4.768;2023-03-02T00:27:37;101830.0;;;-2.3
58307;BMP280;44116;50.884;4.768;2023-03-02T00:29:37;101830.0;;;-2.3
58307;BMP280;44116;50.884;4.768;2023-03-02T00:31:36;101830.0;;;-2.4
58307;BMP280;44116;50.884;4.768;2023-03-02T00:33:35;101830.0;;;-2.3
58307;BMP280;44116;50.884;4.768;2023-03-02T00:35:36;101830.0;;;-2.4
58307;BMP280;44116;50.884;4.768;2023-03-02T00:37:34;101830.0;;;-2.3
58307;BMP280;44116;50.884;4.768;2023-03-02T00:39:34;101830.0;;;-2.3
58307;BMP280;44116;50.884;4.768;2023-03-02T00:41:33;101830.0;;;-2.4
58307;BMP280;44116;50.884;4.768;2023-03-02T00:43:33;101830.0;;;-2.3
58307;BMP280;44116;50.884;4.768;2023-03-02T00:45:32;101830.0;;;-2.3
58307;BMP280;44116;50.884;4.768;2023-03-02T00:47:32;101840.0;;;-2.3
58307;BMP280;44116;50.884;4.768;2023-03-02T00:49:31;101840.0;;;-2.3
58307;BMP280;44116;50.884;4.768;2023-03-02T00:51:31;101840.0;;;-2.4
58307;BMP280;44116;50.884;4.768;2023-03-02T00:53:30;101830.0;;;-2.4
58307;BMP280;44116;50.884;4.768;2023-03-02T00:55:29;101830.0;;;-2.4
58307;BMP280;44116;50.884;4.768;2023-03-02T00:57:29;101830.0;;;-2.3
58307;BMP280;44116;50.884;4.768;2023-03-02T00:59:29;101830.0;;;-2.1
58307;BMP280;44116;50.884;4.768;2023-03-02T01:01:28;101830.0;;;-2.0
58307;BMP280;44116;50.884;4.768;2023-03-02T01:03:27;101820.0;;;-1.9
58307;BMP280;44116;50.884;4.768;2023-03-02T01:05:27;101830.0;;;-1.9
58307;BMP280;44116;50.884;4.768;2023-03-02T01:07:26;101820.0;;;-1.8
58307;BMP280;44116;50.884;4.768;2023-03-02T01:09:26;101820.0;;;-2.0
58307;BMP280;44116;50.884;4.768;2023-03-02T01:11:25;101820.0;;;-2.0
58307;BMP280;44116;50.884;4.768;2023-03-02T01:15:24;101820.0;;;-2.2
58307;BMP280;44116;50.884;4.768;2023-03-02T01:17:24;101810.0;;;-2.2
58307;BMP280;44116;50.884;4.768;2023-03-02T01:19:23;101810.0;;;-2.1
58307;BMP280;44116;50.884;4.768;2023-03-02T01:21:22;101820.0;;;-2.1
58307;BMP280;44116;50.884;4.768;2023-03-02T01:23:22;101810.0;;;-2.0
58307;BMP280;44116;50.884;4.768;2023-03-02T01:25:21;101800.0;;;-2.0
58307;BMP280;44116;50.884;4.768;2023-03-02T01:27:21;101800.0;;;-2.0
58307;BMP280;44116;50.884;4.768;2023-03-02T01:29:20;101810.0;;;-1.9
58307;BMP280;44116;50.884;4.768;2023-03-02T01:31:20;101810.0;;;-1.9
58307;BMP280;44116;50.884;4.768;2023-03-02T01:33:19;101810.0;;;-1.8
58307;BMP280;44116;50.884;4.768;2023-03-02T01:35:19;101800.0;;;-1.8
58307;BMP280;44116;50.884;4.768;2023-03-02T01:37:18;101800.0;;;-1.9
58307;BMP280;44116;50.884;4.768;2023-03-02T01:39:18;101800.0;;;-1.9
58307;BMP280;44116;50.884;4.768;2023-03-02T01:41:17;101790.0;;;-1.8
58307;BMP280;44116;50.884;4.768;2023-03-02T01:43:16;101790.0;;;-1.8
58307;BMP280;44116;50.884;4.768;2023-03-02T01:47:17;101780.0;;;-1.8
58307;BMP280;44116;50.884;4.768;2023-03-02T01:49:15;101780.0;;;-2.0
58307;BMP280;44116;50.884;4.768;2023-03-02T01:51:15;101780.0;;;-2.0
58307;BMP280;44116;50.884;4.768;2023-03-02T01:53:14;101780.0;;;-2.0
58307;BMP280;44116;50.884;4.768;2023-03-02T01:55:14;101780.0;;;-2.0
58307;BMP280;44116;50.884;4.768;2023-03-02T01:59:13;101780.0;;;-2.0
58307;BMP280;44116;50.884;4.768;2023-03-02T02:01:12;101780.0;;;-2.1
58307;BMP280;44116;50.884;4.768;2023-03-02T02:03:13;101780.0;;;-2.1
58307;BMP280;44116;50.884;4.768;2023-03-02T02:05:11;101770.0;;;-2.1
58307;BMP280;44116;50.884;4.768;2023-03-02T02:07:10;101770.0;;;-2.2
58307;BMP280;44116;50.884;4.768;2023-03-02T02:09:12;101760.0;;;-2.2
58307;BMP280;44116;50.884;4.768;2023-03-02T02:11:09;101760.0;;;-2.2
58307;BMP280;44116;50.884;4.768;2023-03-02T02:13:09;101760.0;;;-2.2
58307;BMP280;44116;50.884;4.768;2023-03-02T02:15:08;101760.0;;;-2.2
58307;BMP280;44116;50.884;4.768;2023-03-02T02:17:08;101760.0;;;-2.1
58307;BMP280;44116;50.884;4.768;2023-03-02T02:21:06;101750.0;;;-2.2
58307;BMP280;44116;50.884;4.768;2023-03-02T02:23:12;101750.0;;;-2.2
58307;BMP280;44116;50.884;4.768;2023-03-02T02:25:08;101740.0;;;-2.3
58307;BMP280;44116;50.884;4.768;2023-03-02T02:27:05;101740.0;;;-2.4
58307;BMP280;44116;50.884;4.768;2023-03-02T02:29:05;101740.0;;;-2.3
58307;BMP280;44116;50.884;4.768;2023-03-02T02:31:05;101740.0;;;-2.3
58307;BMP280;44116;50.884;4.768;2023-03-02T02:33:03;101740.0;;;-2.3
58307;BMP280;44116;50.884;4.768;2023-03-02T02:35:03;101740.0;;;-2.2
58307;BMP280;44116;50.884;4.768;2023-03-02T02:37:03;101730.0;;;-2.2
58307;BMP280;44116;50.884;4.768;2023-03-02T02:39:02;101730.0;;;-2.2
58307;BMP280;44116;50.884;4.768;2023-03-02T02:41:01;101730.0;;;-2.1
58307;BMP280;44116;50.884;4.768;2023-03-02T02:43:00;101730.0;;;-2.1
58307;BMP280;44116;50.884;4.768;2023-03-02T02:45:01;101730.0;;;-2.1
58307;BMP280;44116;50.884;4.768;2023-03-02T02:46:59;101730.0;;;-2.1
58307;BMP280;44116;50.884;4.768;2023-03-02T02:50:58;101730.0;;;-2.1
58307;BMP280;44116;50.884;4.768;2023-03-02T02:54:57;101730.0;;;-2.1
58307;BMP280;44116;50.884;4.768;2023-03-02T02:56:56;101730.0;;;-2.1
58307;BMP280;44116;50.884;4.768;2023-03-02T02:58:57;101730.0;;;-2.1
58307;BMP280;44116;50.884;4.768;2023-03-02T03:00:55;101730.0;;;-2.0
58307;BMP280;44116;50.884;4.768;2023-03-02T03:02:57;101730.0;;;-2.0
58307;BMP280;44116;50.884;4.768;2023-03-02T03:04:54;101730.0;;;-2.0
58307;BMP280;44116;50.884;4.768;2023-03-02T03:06:55;101730.0;;;-2.1
58307;BMP280;44116;50.884;4.768;2023-03-02T03:08:56;101730.0;;;-2.1
58307;BMP280;44116;50.884;4.768;2023-03-02T03:10:53;101730.0;;;-2.1
58307;BMP280;44116;50.884;4.768;2023-03-02T03:14:52;101730.0;;;-2.1
58307;BMP280;44116;50.884;4.768;2023-03-02T03:16:52;101730.0;;;-2.2
58307;BMP280;44116;50.884;4.768;2023-03-02T03:20:50;101720.0;;;-2.3
58307;BMP280;44116;50.884;4.768;2023-03-02T03:22:50;101720.0;;;-2.2
58307;BMP280;44116;50.884;4.768;2023-03-02T03:26:49;101720.0;;;-2.3
58307;BMP280;44116;50.884;4.768;2023-03-02T03:28:48;101720.0;;;-2.3
58307;BMP280;44116;50.884;4.768;2023-03-02T03:30:47;101720.0;;;-2.3
58307;BMP280;44116;50.884;4.768;2023-03-02T03:32:47;101730.0;;;-2.3
58307;BMP280;44116;50.884;4.768;2023-03-02T03:34:47;101720.0;;;-2.2
58307;BMP280;44116;50.884;4.768;2023-03-02T03:36:46;101720.0;;;-2.4
58307;BMP280;44116;50.884;4.768;2023-03-02T03:38:45;101720.0;;;-2.3
58307;BMP280;44116;50.884;4.768;2023-03-02T03:40:45;101720.0;;;-2.5
58307;BMP280;44116;50.884;4.768;2023-03-02T03:42:44;101720.0;;;-2.4
58307;BMP280;44116;50.884;4.768;2023-03-02T03:44:44;101720.0;;;-2.5
58307;BMP280;44116;50.884;4.768;2023-03-02T03:46:43;101730.0;;;-2.6
58307;BMP280;44116;50.884;4.768;2023-03-02T03:48:43;101730.0;;;-2.6
58307;BMP280;44116;50.884;4.768;2023-03-02T03:50:42;101720.0;;;-2.6
58307;BMP280;44116;50.884;4.768;2023-03-02T03:54:41;101730.0;;;-2.7
58307;BMP280;44116;50.884;4.768;2023-03-02T03:56:41;101730.0;;;-2.6
58307;BMP280;44116;50.884;4.768;2023-03-02T03:58:40;101730.0;;;-2.7
58307;BMP280;44116;50.884;4.768;2023-03-02T04:00:39;101730.0;;;-2.7
58307;BMP280;44116;50.884;4.768;2023-03-02T04:02:39;101730.0;;;-2.6
58307;BMP280;44116;50.884;4.768;2023-03-02T04:04:38;101730.0;;;-2.8
58307;BMP280;44116;50.884;4.768;2023-03-02T04:06:38;101730.0;;;-2.7
58307;BMP280;44116;50.884;4.768;2023-03-02T04:08:37;101730.0;;;-2.7
58307;BMP280;44116;50.884;4.768;2023-03-02T04:10:37;101730.0;;;-2.7
58307;BMP280;44116;50.884;4.768;2023-03-02T04:12:37;101730.0;;;-2.7
58307;BMP280;44116;50.884;4.768;2023-03-02T04:14:36;101730.0;;;-2.7
58307;BMP280;44116;50.884;4.768;2023-03-02T04:18:34;101730.0;;;-2.8
58307;BMP280;44116;50.884;4.768;2023-03-02T04:20:34;101740.0;;;-2.8
58307;BMP280;44116;50.884;4.768;2023-03-02T04:22:33;101740.0;;;-2.9
58307;BMP280;44116;50.884;4.768;2023-03-02T04:24:33;101740.0;;;-2.8
58307;BMP280;44116;50.884;4.768;2023-03-02T04:26:32;101740.0;;;-2.9
58307;BMP280;44116;50.884;4.768;2023-03-02T04:28:32;101740.0;;;-2.8
58307;BMP280;44116;50.884;4.768;2023-03-02T04:30:31;101740.0;;;-2.9
58307;BMP280;44116;50.884;4.768;2023-03-02T04:32:30;101740.0;;;-2.9
58307;BMP280;44116;50.884;4.768;2023-03-02T04:34:30;101750.0;;;-2.8
58307;BMP280;44116;50.884;4.768;2023-03-02T04:36:29;101750.0;;;-2.9
58307;BMP280;44116;50.884;4.768;2023-03-02T04:38:29;101750.0;;;-2.9
58307;BMP280;44116;50.884;4.768;2023-03-02T04:40:28;101750.0;;;-2.8
58307;BMP280;44116;50.884;4.768;2023-03-02T04:42:28;101750.0;;;-2.9
58307;BMP280;44116;50.884;4.768;2023-03-02T04:44:27;101750.0;;;-2.9
58307;BMP280;44116;50.884;4.768;2023-03-02T04:46:27;101750.0;;;-3.0
58307;BMP280;44116;50.884;4.768;2023-03-02T04:48:26;101740.0;;;-3.1
58307;BMP280;44116;50.884;4.768;2023-03-02T04:50:25;101740.0;;;-2.9
58307;BMP280;44116;50.884;4.768;2023-03-02T04:52:25;101740.0;;;-3.0
58307;BMP280;44116;50.884;4.768;2023-03-02T04:54:25;101740.0;;;-3.0
58307;BMP280;44116;50.884;4.768;2023-03-02T04:56:24;101740.0;;;-2.9
58307;BMP280;44116;50.884;4.768;2023-03-02T04:58:23;101750.0;;;-3.0
58307;BMP280;44116;50.884;4.768;2023-03-02T05:00:23;101740.0;;;-3.0
58307;BMP280;44116;50.884;4.768;2023-03-02T05:02:22;101740.0;;;-3.2
58307;BMP280;44116;50.884;4.768;2023-03-02T05:04:21;101740.0;;;-3.1
58307;BMP280;44116;50.884;4.768;2023-03-02T05:06:21;101740.0;;;-3.1
58307;BMP280;44116;50.884;4.768;2023-03-02T05:08:20;101740.0;;;-3.0
58307;BMP280;44116;50.884;4.768;2023-03-02T05:10:22;101740.0;;;-3.0
58307;BMP280;44116;50.884;4.768;2023-03-02T05:12:19;101740.0;;;-2.9
58307;BMP280;44116;50.884;4.768;2023-03-02T05:14:19;101740.0;;;-3.0
58307;BMP280;44116;50.884;4.768;2023-03-02T05:16:18;101750.0;;;-3.0
58307;BMP280;44116;50.884;4.768;2023-03-02T05:18:18;101740.0;;;-3.0
58307;BMP280;44116;50.884;4.768;2023-03-02T05:20:17;101740.0;;;-3.0
58307;BMP280;44116;50.884;4.768;2023-03-02T05:22:17;101740.0;;;-3.1
58307;BMP280;44116;50.884;4.768;2023-03-02T05:24:16;101740.0;;;-3.1
58307;BMP280;44116;50.884;4.768;2023-03-02T05:26:15;101750.0;;;-3.2
58307;BMP280;44116;50.884;4.768;2023-03-02T05:28:15;101740.0;;;-3.0
58307;BMP280;44116;50.884;4.768;2023-03-02T05:30:14;101740.0;;;-3.0
58307;BMP280;44116;50.884;4.768;2023-03-02T05:32:14;101740.0;;;-3.1
58307;BMP280;44116;50.884;4.768;2023-03-02T05:34:14;101740.0;;;-3.0
58307;BMP280;44116;50.884;4.768;2023-03-02T05:36:13;101740.0;;;-3.1
58307;BMP280;44116;50.884;4.768;2023-03-02T05:38:12;101750.0;;;-3.2
58307;BMP280;44116;50.884;4.768;2023-03-02T05:40:12;101750.0;;;-3.2
58307;BMP280;44116;50.884;4.768;2023-03-02T05:42:11;101740.0;;;-3.1
58307;BMP280;44116;50.884;4.768;2023-03-02T05:44:10;101750.0;;;-3.1
58307;BMP280;44116;50.884;4.768;2023-03-02T05:46:10;101750.0;;;-3.1
58307;BMP280;44116;50.884;4.768;2023-03-02T05:48:09;101750.0;;;-3.2
58307;BMP280;44116;50.884;4.768;2023-03-02T05:50:09;101750.0;;;-3.2
58307;BMP280;44116;50.884;4.768;2023-03-02T05:52:08;101750.0;;;-3.1
58307;BMP280;44116;50.884;4.768;2023-03-02T05:54:07;101750.0;;;-3.1
58307;BMP280;44116;50.884;4.768;2023-03-02T05:56:07;101760.0;;;-3.1
58307;BMP280;44116;50.884;4.768;2023-03-02T05:58:08;101760.0;;;-3.1
58307;BMP280;44116;50.884;4.768;2023-03-02T06:00:06;101760.0;;;-3.2
58307;BMP280;44116;50.884;4.768;2023-03-02T06:02:05;101760.0;;;-3.3
58307;BMP280;44116;50.884;4.768;2023-03-02T06:04:04;101760.0;;;-3.2
58307;BMP280;44116;50.884;4.768;2023-03-02T06:06:04;101760.0;;;-3.2
58307;BMP280;44116;50.884;4.768;2023-03-02T06:08:03;101760.0;;;-3.4
58307;BMP280;44116;50.884;4.768;2023-03-02T06:10:03;101760.0;;;-3.4
58307;BMP280;44116;50.884;4.768;2023-03-02T06:12:02;101770.0;;;-3.4
58307;BMP280;44116;50.884;4.768;2023-03-02T06:14:02;101770.0;;;-3.4
58307;BMP280;44116;50.884;4.768;2023-03-02T06:16:01;101770.0;;;-3.4
58307;BMP280;44116;50.884;4.768;2023-03-02T06:18:00;101770.0;;;-3.5
58307;BMP280;44116;50.884;4.768;2023-03-02T06:21:59;101770.0;;;-3.5
58307;BMP280;44116;50.884;4.768;2023-03-02T06:23:59;101770.0;;;-3.4
58307;BMP280;44116;50.884;4.768;2023-03-02T06:25:58;101770.0;;;-3.4
58307;BMP280;44116;50.884;4.768;2023-03-02T06:27:57;101780.0;;;-3.5
58307;BMP280;44116;50.884;4.768;2023-03-02T06:29:57;101780.0;;;-3.5
58307;BMP280;44116;50.884;4.768;2023-03-02T06:31:56;101770.0;;;-3.6
58307;BMP280;44116;50.884;4.768;2023-03-02T06:33:56;101770.0;;;-3.6
58307;BMP280;44116;50.884;4.768;2023-03-02T06:35:55;101770.0;;;-3.5
58307;BMP280;44116;50.884;4.768;2023-03-02T06:37:54;101770.0;;;-3.5
58307;BMP280;44116;50.884;4.768;2023-03-02T06:39:54;101770.0;;;-3.5
58307;BMP280;44116;50.884;4.768;2023-03-02T06:41:53;101770.0;;;-3.3
58307;BMP280;44116;50.884;4.768;2023-03-02T06:43:53;101770.0;;;-3.5
58307;BMP280;44116;50.884;4.768;2023-03-02T06:45:52;101760.0;;;-3.5
58307;BMP280;44116;50.884;4.768;2023-03-02T06:47:52;101770.0;;;-3.5
58307;BMP280;44116;50.884;4.768;2023-03-02T06:49:51;101770.0;;;-3.5
58307;BMP280;44116;50.884;4.768;2023-03-02T06:51:50;101770.0;;;-3.7
58307;BMP280;44116;50.884;4.768;2023-03-02T06:53:50;101780.0;;;-3.6
58307;BMP280;44116;50.884;4.768;2023-03-02T06:55:49;101780.0;;;-3.6
58307;BMP280;44116;50.884;4.768;2023-03-02T06:57:49;101770.0;;;-3.5
58307;BMP280;44116;50.884;4.768;2023-03-02T06:59:48;101770.0;;;-3.4
58307;BMP280;44116;50.884;4.768;2023-03-02T07:03:47;101780.0;;;-3.5
58307;BMP280;44116;50.884;4.768;2023-03-02T07:05:46;101770.0;;;-3.5
58307;BMP280;44116;50.884;4.768;2023-03-02T07:07:46;101780.0;;;-3.4
58307;BMP280;44116;50.884;4.768;2023-03-02T07:09:45;101770.0;;;-3.3
58307;BMP280;44116;50.884;4.768;2023-03-02T07:11:44;101770.0;;;-3.3
58307;BMP280;44116;50.884;4.768;2023-03-02T07:13:44;101770.0;;;-3.4
58307;BMP280;44116;50.884;4.768;2023-03-02T07:15:43;101770.0;;;-3.4
58307;BMP280;44116;50.884;4.768;2023-03-02T07:17:43;101770.0;;;-3.3
58307;BMP280;44116;50.884;4.768;2023-03-02T07:19:42;101770.0;;;-3.3
58307;BMP280;44116;50.884;4.768;2023-03-02T07:21:42;101770.0;;;-3.3
58307;BMP280;44116;50.884;4.768;2023-03-02T07:23:41;101770.0;;;-3.3
58307;BMP280;44116;50.884;4.768;2023-03-02T07:25:40;101780.0;;;-3.2
58307;BMP280;44116;50.884;4.768;2023-03-02T07:29:39;101770.0;;;-3.2
58307;BMP280;44116;50.884;4.768;2023-03-02T07:31:39;101770.0;;;-3.0
58307;BMP280;44116;50.884;4.768;2023-03-02T07:33:39;101780.0;;;-2.9
58307;BMP280;44116;50.884;4.768;2023-03-02T07:35:37;101780.0;;;-2.8
58307;BMP280;44116;50.884;4.768;2023-03-02T07:37:37;101780.0;;;-2.8
58307;BMP280;44116;50.884;4.768;2023-03-02T07:39:36;101780.0;;;-2.8
58307;BMP280;44116;50.884;4.768;2023-03-02T07:41:36;101780.0;;;-2.7
58307;BMP280;44116;50.884;4.768;2023-03-02T07:43:35;101780.0;;;-2.5
58307;BMP280;44116;50.884;4.768;2023-03-02T07:45:35;101790.0;;;-2.4
58307;BMP280;44116;50.884;4.768;2023-03-02T07:47:34;101780.0;;;-2.4
58307;BMP280;44116;50.884;4.768;2023-03-02T07:49:33;101780.0;;;-2.2
58307;BMP280;44116;50.884;4.768;2023-03-02T07:51:33;101780.0;;;-2.1
58307;BMP280;44116;50.884;4.768;2023-03-02T07:53:32;101780.0;;;-2.1
58307;BMP280;44116;50.884;4.768;2023-03-02T07:55:32;101780.0;;;-2.1
58307;BMP280;44116;50.884;4.768;2023-03-02T07:57:31;101780.0;;;-2.1
58307;BMP280;44116;50.884;4.768;2023-03-02T07:59:30;101780.0;;;-2.0
58307;BMP280;44116;50.884;4.768;2023-03-02T08:01:30;101790.0;;;-1.9
58307;BMP280;44116;50.884;4.768;2023-03-02T08:03:29;101790.0;;;-1.8
58307;BMP280;44116;50.884;4.768;2023-03-02T08:05:29;101780.0;;;-1.8
58307;BMP280;44116;50.884;4.768;2023-03-02T08:07:28;101790.0;;;-1.7
58307;BMP280;44116;50.884;4.768;2023-03-02T08:09:28;101790.0;;;-1.6
58307;BMP280;44116;50.884;4.768;2023-03-02T08:11:27;101780.0;;;-1.5
58307;BMP280;44116;50.884;4.768;2023-03-02T08:13:26;101780.0;;;-1.5
58307;BMP280;44116;50.884;4.768;2023-03-02T08:15:26;101780.0;;;-1.5
58307;BMP280;44116;50.884;4.768;2023-03-02T08:17:25;101780.0;;;-1.5
58307;BMP280;44116;50.884;4.768;2023-03-02T08:19:25;101780.0;;;-1.4
58307;BMP280;44116;50.884;4.768;2023-03-02T08:21:25;101790.0;;;-1.3
58307;BMP280;44116;50.884;4.768;2023-03-02T08:23:24;101780.0;;;-1.3
58307;BMP280;44116;50.884;4.768;2023-03-02T08:27:23;101780.0;;;-1.1
58307;BMP280;44116;50.884;4.768;2023-03-02T08:29:22;101780.0;;;-1.0
58307;BMP280;44116;50.884;4.768;2023-03-02T08:31:21;101790.0;;;-1.0
58307;BMP280;44116;50.884;4.768;2023-03-02T08:33:21;101780.0;;;-1.0
58307;BMP280;44116;50.884;4.768;2023-03-02T08:35:20;101780.0;;;-0.9
58307;BMP280;44116;50.884;4.768;2023-03-02T08:37:20;101780.0;;;-0.9
58307;BMP280;44116;50.884;4.768;2023-03-02T08:39:19;101780.0;;;-0.9
58307;BMP280;44116;50.884;4.768;2023-03-02T08:41:20;101780.0;;;-0.8
58307;BMP280;44116;50.884;4.768;2023-03-02T08:43:18;101780.0;;;-0.7
58307;BMP280;44116;50.884;4.768;2023-03-02T08:45:18;101770.0;;;-0.6
58307;BMP280;44116;50.884;4.768;2023-03-02T08:47:17;101770.0;;;-0.6
58307;BMP280;44116;50.884;4.768;2023-03-02T08:49:17;101770.0;;;-0.4
58307;BMP280;44116;50.884;4.768;2023-03-02T08:51:17;101770.0;;;-0.3
58307;BMP280;44116;50.884;4.768;2023-03-02T08:53:15;101770.0;;;-0.3
58307;BMP280;44116;50.884;4.768;2023-03-02T08:55:15;101770.0;;;-0.3
58307;BMP280;44116;50.884;4.768;2023-03-02T08:57:15;101770.0;;;-0.2
58307;BMP280;44116;50.884;4.768;2023-03-02T08:59:14;101770.0;;;-0.2
58307;BMP280;44116;50.884;4.768;2023-03-02T09:01:14;101770.0;;;-0.0
58307;BMP280;44116;50.884;4.768;2023-03-02T09:03:13;101760.0;;;-0.0
58307;BMP280;44116;50.884;4.768;2023-03-02T09:05:12;101770.0;;;0.1
58307;BMP280;44116;50.884;4.768;2023-03-02T09:07:40;101760.0;;;0.2
58307;BMP280;44116;50.884;4.768;2023-03-02T09:11:11;101760.0;;;0.4
58307;BMP280;44116;50.884;4.768;2023-03-02T09:13:10;101770.0;;;0.5
58307;BMP280;44116;50.884;4.768;2023-03-02T09:15:10;101760.0;;;0.5
58307;BMP280;44116;50.884;4.768;2023-03-02T09:17:09;101760.0;;;0.7
58307;BMP280;44116;50.884;4.768;2023-03-02T09:19:10;101750.0;;;0.6
58307;BMP280;44116;50.884;4.768;2023-03-02T09:23:08;101750.0;;;0.8
58307;BMP280;44116;50.884;4.768;2023-03-02T09:25:07;101750.0;;;0.9
58307;BMP280;44116;50.884;4.768;2023-03-02T09:27:07;101750.0;;;0.9
58307;BMP280;44116;50.884;4.768;2023-03-02T09:29:06;101740.0;;;0.9
58307;BMP280;44116;50.884;4.768;2023-03-02T09:33:05;101750.0;;;1.0
58307;BMP280;44116;50.884;4.768;2023-03-02T09:35:05;101750.0;;;1.1
58307;BMP280;44116;50.884;4.768;2023-03-02T09:37:04;101750.0;;;1.2
58307;BMP280;44116;50.884;4.768;2023-03-02T09:39:03;101740.0;;;1.1
58307;BMP280;44116;50.884;4.768;2023-03-02T09:41:07;101740.0;;;1.3
58307;BMP280;44116;50.884;4.768;2023-03-02T09:43:05;101740.0;;;1.4
58307;BMP280;44116;50.884;4.768;2023-03-02T09:45:07;101740.0;;;1.5
58307;BMP280;44116;50.884;4.768;2023-03-02T09:47:02;101730.0;;;1.6
58307;BMP280;44116;50.884;4.768;2023-03-02T09:49:06;101740.0;;;1.5
58307;BMP280;44116;50.884;4.768;2023-03-02T09:51:04;101730.0;;;1.5
58307;BMP280;44116;50.884;4.768;2023-03-02T09:53:07;101730.0;;;1.8
58307;BMP280;44116;50.884;4.768;2023-03-02T09:55:00;101730.0;;;1.7
58307;BMP280;44116;50.884;4.768;2023-03-02T09:59:01;101730.0;;;1.8
58307;BMP280;44116;50.884;4.768;2023-03-02T10:00:59;101730.0;;;1.9
58307;BMP280;44116;50.884;4.768;2023-03-02T10:02:58;101730.0;;;1.9
58307;BMP280;44116;50.884;4.768;2023-03-02T10:04:57;101720.0;;;2.0
58307;BMP280;44116;50.884;4.768;2023-03-02T10:06:57;101730.0;;;2.0
58307;BMP280;44116;50.884;4.768;2023-03-02T10:08:56;101730.0;;;2.2
58307;BMP280;44116;50.884;4.768;2023-03-02T10:13:02;101730.0;;;2.3
58307;BMP280;44116;50.884;4.768;2023-03-02T10:14:55;101730.0;;;2.4
58307;BMP280;44116;50.884;4.768;2023-03-02T10:16:59;101720.0;;;2.2
58307;BMP280;44116;50.884;4.768;2023-03-02T10:18:56;101730.0;;;2.5
58307;BMP280;44116;50.884;4.768;2023-03-02T10:20:54;101720.0;;;2.6
58307;BMP280;44116;50.884;4.768;2023-03-02T10:22:53;101720.0;;;2.4
58307;BMP280;44116;50.884;4.768;2023-03-02T10:24:54;101720.0;;;2.5
58307;BMP280;44116;50.884;4.768;2023-03-02T10:26:52;101720.0;;;2.6
58307;BMP280;44116;50.884;4.768;2023-03-02T10:28:53;101720.0;;;2.6
58307;BMP280;44116;50.884;4.768;2023-03-02T10:30:51;101720.0;;;2.6
58307;BMP280;44116;50.884;4.768;2023-03-02T10:32:50;101720.0;;;2.7
58307;BMP280;44116;50.884;4.768;2023-03-02T10:34:50;101720.0;;;2.9
58307;BMP280;44116;50.884;4.768;2023-03-02T10:36:49;101720.0;;;3.0
58307;BMP280;44116;50.884;4.768;2023-03-02T10:38:49;101710.0;;;2.9
58307;BMP280;44116;50.884;4.768;2023-03-02T10:40:49;101720.0;;;3.2
58307;BMP280;44116;50.884;4.768;2023-03-02T10:44:49;101710.0;;;3.1
58307;BMP280;44116;50.884;4.768;2023-03-02T10:46:47;101710.0;;;3.3
58307;BMP280;44116;50.884;4.768;2023-03-02T10:48:47;101710.0;;;3.3
58307;BMP280;44116;50.884;4.768;2023-03-02T10:50:51;101710.0;;;3.2
58307;BMP280;44116;50.884;4.768;2023-03-02T10:52:47;101700.0;;;3.3
58307;BMP280;44116;50.884;4.768;2023-03-02T10:54:45;101710.0;;;3.3
58307;BMP280;44116;50.884;4.768;2023-03-02T10:56:47;101710.0;;;3.2
58307;BMP280;44116;50.884;4.768;2023-03-02T10:58:44;101710.0;;;3.5
58307;BMP280;44116;50.884;4.768;2023-03-02T11:00:53;101710.0;;;3.5
58307;BMP280;44116;50.884;4.768;2023-03-02T11:02:50;101700.0;;;3.4
58307;BMP280;44116;50.884;4.768;2023-03-02T11:04:43;101700.0;;;3.5
58307;BMP280;44116;50.884;4.768;2023-03-02T11:06:42;101700.0;;;3.7
58307;BMP280;44116;50.884;4.768;2023-03-02T11:08:41;101690.0;;;3.8
58307;BMP280;44116;50.884;4.768;2023-03-02T11:10:50;101690.0;;;4.0
58307;BMP280;44116;50.884;4.768;2023-03-02T11:12:44;101690.0;;;3.7
58307;BMP280;44116;50.884;4.768;2023-03-02T11:14:40;101690.0;;;3.8
58307;BMP280;44116;50.884;4.768;2023-03-02T11:16:40;101700.0;;;3.7
58307;BMP280;44116;50.884;4.768;2023-03-02T11:18:40;101690.0;;;3.9
58307;BMP280;44116;50.884;4.768;2023-03-02T11:20:40;101690.0;;;4.0
58307;BMP280;44116;50.884;4.768;2023-03-02T11:22:39;101690.0;;;4.1
58307;BMP280;44116;50.884;4.768;2023-03-02T11:24:39;101690.0;;;4.2
58307;BMP280;44116;50.884;4.768;2023-03-02T11:26:38;101690.0;;;4.2
58307;BMP280;44116;50.884;4.768;2023-03-02T11:28:40;101680.0;;;4.4
58307;BMP280;44116;50.884;4.768;2023-03-02T11:30:39;101680.0;;;4.6
58307;BMP280;44116;50.884;4.768;2023-03-02T11:32:39;101680.0;;;4.7
58307;BMP280;44116;50.884;4.768;2023-03-02T11:34:39;101680.0;;;4.5
58307;BMP280;44116;50.884;4.768;2023-03-02T11:36:38;101690.0;;;4.7
58307;BMP280;44116;50.884;4.768;2023-03-02T11:38:36;101680.0;;;4.4
58307;BMP280;44116;50.884;4.768;2023-03-02T11:40:35;101680.0;;;5.0
58307;BMP280;44116;50.884;4.768;2023-03-02T11:42:34;101670.0;;;5.1
58307;BMP280;44116;50.884;4.768;2023-03-02T11:44:33;101680.0;;;5.2
58307;BMP280;44116;50.884;4.768;2023-03-02T11:46:33;101670.0;;;5.1
58307;BMP280;44116;50.884;4.768;2023-03-02T11:48:34;101670.0;;;5.1
58307;BMP280;44116;50.884;4.768;2023-03-02T11:50:33;101670.0;;;5.2
58307;BMP280;44116;50.884;4.768;2023-03-02T11:52:32;101670.0;;;5.0
58307;BMP280;44116;50.884;4.768;2023-03-02T11:54:33;101670.0;;;5.0
58307;BMP280;44116;50.884;4.768;2023-03-02T11:56:31;101670.0;;;5.2
58307;BMP280;44116;50.884;4.768;2023-03-02T11:58:30;101660.0;;;5.2
58307;BMP280;44116;50.884;4.768;2023-03-02T12:00:32;101660.0;;;5.2
58307;BMP280;44116;50.884;4.768;2023-03-02T12:02:29;101670.0;;;5.1
58307;BMP280;44116;50.884;4.768;2023-03-02T12:04:30;101670.0;;;5.4
58307;BMP280;44116;50.884;4.768;2023-03-02T12:06:33;101670.0;;;5.5
58307;BMP280;44116;50.884;4.768;2023-03-02T12:08:31;101660.0;;;5.4
58307;BMP280;44116;50.884;4.768;2023-03-02T12:10:30;101650.0;;;5.5
58307;BMP280;44116;50.884;4.768;2023-03-02T12:14:29;101650.0;;;5.6
58307;BMP280;44116;50.884;4.768;2023-03-02T12:16:33;101650.0;;;5.6
58307;BMP280;44116;50.884;4.768;2023-03-02T12:18:28;101640.0;;;5.8
58307;BMP280;44116;50.884;4.768;2023-03-02T12:20:26;101640.0;;;5.8
58307;BMP280;44116;50.884;4.768;2023-03-02T12:22:26;101640.0;;;5.9
58307;BMP280;44116;50.884;4.768;2023-03-02T12:24:26;101640.0;;;6.1